Time;durP1;ratioP1;P1;durP2;ratioP2;P2;SDS_P1;SDS_P2;PMS_P1;PMS_P2;Temp;Humidity;BMP_temperature;BMP_pressure;BME280_temperature;BME280_humidity;BME280_pressure;Samples;Min_cycle;Max_cycle;Signal;HPM_P1;HPM_P2
2023/12/17 00:02:16;;;;;;;14.23;6.80;;;;;;;;;;5123023;27;20115;-90
2023/12/17 00:04:57;;;;;;;16.83;7.47;;;;;;;;;;5123651;27;20039;-90
2023/12/17 00:07:30;;;;;;;17.15;8.45;;;;;;;;;;5123727;27;20062;-90
2023/12/17 00:10:11;;;;;;;14.88;5.90;;;;;;;;;;5128595;27;20043;-90
2023/12/17 00:12:46;;;;;;;15.50;8.48;;;;;;;;;;5125036;27;20146;-90
2023/12/17 00:15:25;;;;;;;10.48;6.22;;;;;;;;;;5124395;28;20331;-90
2023/12/17 00:18:12;;;;;;;16.38;6.72;;;;;;;;;;5125535;27;20051;-90
2023/12/17 00:20:54;;;;;;;20.95;7.53;;;;;;;;;;5128087;27;20054;-90
2023/12/17 00:23:37;;;;;;;18.60;7.85;;;;;;;;;;5123560;27;20093;-90
2023/12/17 00:26:21;;;;;;;15.70;6.90;;;;;;;;;;5124172;28;20051;-90
2023/12/17 00:29:04;;;;;;;14.50;6.60;;;;;;;;;;5139674;28;20403;-90
2023/12/17 00:31:48;;;;;;;17.83;7.95;;;;;;;;;;5138807;28;20059;-90
2023/12/17 00:34:29;;;;;;;20.65;7.45;;;;;;;;;;5123950;28;20047;-90
2023/12/17 00:37:10;;;;;;;13.45;7.10;;;;;;;;;;5124317;28;20046;-90
2023/12/17 00:39:55;;;;;;;11.98;6.25;;;;;;;;;;5125597;28;20039;-90
2023/12/17 00:42:37;;;;;;;14.45;7.22;;;;;;;;;;5143656;28;20043;-90
2023/12/17 00:45:18;;;;;;;15.68;7.13;;;;;;;;;;5124427;28;20072;-90
2023/12/17 00:47:59;;;;;;;14.02;7.45;;;;;;;;;;5125402;27;20042;-90
2023/12/17 00:54:03;;;;;;;14.82;7.07;;;;;;;;;;5144836;27;20034;-90
2023/12/17 00:56:45;;;;;;;13.13;6.63;;;;;;;;;;5144384;27;20039;-90
2023/12/17 00:59:26;;;;;;;13.73;6.55;;;;;;;;;;5128400;27;20140;-89
2023/12/17 01:02:12;;;;;;;12.25;6.10;;;;;;;;;;5130722;27;20038;-90
2023/12/17 01:05:11;;;;;;;9.60;5.45;;;;;;;;;;5143777;27;20399;-89
2023/12/17 01:07:55;;;;;;;14.68;6.13;;;;;;;;;;5128346;27;20047;-90
2023/12/17 01:10:37;;;;;;;9.15;5.63;;;;;;;;;;5128751;27;20127;-90
2023/12/17 01:13:22;;;;;;;10.43;5.55;;;;;;;;;;5128424;27;20103;-90
2023/12/17 01:16:04;;;;;;;15.57;5.68;;;;;;;;;;5128056;27;20098;-90
2023/12/17 01:18:45;;;;;;;9.82;5.05;;;;;;;;;;5128917;27;20035;-90
2023/12/17 01:21:24;;;;;;;8.43;4.45;;;;;;;;;;5127769;27;20110;-88
2023/12/17 01:24:07;;;;;;;13.20;5.88;;;;;;;;;;5123249;28;20419;-89
2023/12/17 01:26:49;;;;;;;12.18;5.85;;;;;;;;;;5123821;28;20046;-89
2023/12/17 01:29:33;;;;;;;10.13;4.95;;;;;;;;;;5121242;28;20051;-91
2023/12/17 01:32:14;;;;;;;14.95;6.45;;;;;;;;;;5126705;28;20052;-90
2023/12/17 01:34:54;;;;;;;9.55;4.97;;;;;;;;;;5129038;28;20047;-90
2023/12/17 01:37:43;;;;;;;9.98;5.45;;;;;;;;;;5124574;28;20043;-90
2023/12/17 01:40:24;;;;;;;8.07;4.50;;;;;;;;;;5121399;28;20052;-90
2023/12/17 01:43:13;;;;;;;8.38;4.15;;;;;;;;;;5123916;28;20164;-90
2023/12/17 01:45:42;;;;;;;10.18;5.07;;;;;;;;;;5124104;28;20063;-90
2023/12/17 01:48:28;;;;;;;10.38;4.40;;;;;;;;;;5121609;28;20214;-91
2023/12/17 01:50:59;;;;;;;8.07;4.72;;;;;;;;;;5124849;28;20146;-92
2023/12/17 01:53:31;;;;;;;6.57;4.45;;;;;;;;;;5128879;28;20056;-91
2023/12/17 01:56:12;;;;;;;7.35;4.53;;;;;;;;;;5124074;28;20052;-92
2023/12/17 01:58:44;;;;;;;8.20;4.88;;;;;;;;;;5124420;28;20074;-92
2023/12/17 02:01:15;;;;;;;12.05;4.35;;;;;;;;;;5124993;28;20154;-93
2023/12/17 02:03:46;;;;;;;8.52;3.50;;;;;;;;;;5133081;28;20039;-93
2023/12/17 02:06:14;;;;;;;12.57;4.95;;;;;;;;;;5133355;28;20040;-92
2023/12/17 02:08:44;;;;;;;12.93;4.65;;;;;;;;;;5133166;28;20061;-92
2023/12/17 02:11:13;;;;;;;10.88;4.03;;;;;;;;;;5133068;28;20038;-92
2023/12/17 02:17:11;;;;;;;7.25;4.20;;;;;;;;;;5129662;28;20045;-92
2023/12/17 02:19:38;;;;;;;7.60;3.95;;;;;;;;;;5128630;28;20069;-93
2023/12/17 02:22:08;;;;;;;15.10;4.50;;;;;;;;;;5125878;28;20055;-92
2023/12/17 02:24:45;;;;;;;7.55;4.25;;;;;;;;;;5138518;27;20055;-92
2023/12/17 02:27:25;;;;;;;8.52;4.57;;;;;;;;;;5131013;27;20051;-92
2023/12/17 02:30:06;;;;;;;12.02;4.15;;;;;;;;;;5144158;27;20047;-91
2023/12/17 02:32:37;;;;;;;7.90;4.03;;;;;;;;;;5148021;27;20223;-92
2023/12/17 02:35:06;;;;;;;8.77;4.40;;;;;;;;;;5130444;27;20047;-92
2023/12/17 02:37:48;;;;;;;6.60;3.58;;;;;;;;;;5147635;27;20058;-93
2023/12/17 02:40:17;;;;;;;7.47;4.78;;;;;;;;;;5129434;27;20058;-92
2023/12/17 02:42:45;;;;;;;9.98;4.32;;;;;;;;;;5128536;27;20158;-92
2023/12/17 02:45:15;;;;;;;7.00;3.65;;;;;;;;;;5129526;27;20051;-92
2023/12/17 02:47:46;;;;;;;5.40;3.60;;;;;;;;;;5131419;27;20462;-93
2023/12/17 02:50:16;;;;;;;7.00;4.35;;;;;;;;;;5146052;27;20119;-92
2023/12/17 02:53:00;;;;;;;6.57;3.67;;;;;;;;;;5132247;27;20099;-92
2023/12/17 02:55:33;;;;;;;9.52;4.60;;;;;;;;;;5135322;27;20058;-92
2023/12/17 02:58:05;;;;;;;8.98;3.70;;;;;;;;;;5151492;27;20054;-90
2023/12/17 03:00:36;;;;;;;9.60;3.08;;;;;;;;;;5128907;27;20047;-92
2023/12/17 03:03:09;;;;;;;12.68;4.82;;;;;;;;;;5127806;27;20072;-92
2023/12/17 03:05:38;;;;;;;8.73;4.38;;;;;;;;;;5144085;27;20051;-93
2023/12/17 03:08:08;;;;;;;6.93;3.97;;;;;;;;;;5126013;27;20141;-93
2023/12/17 03:10:42;;;;;;;10.63;4.05;;;;;;;;;;5126630;27;20110;-92
2023/12/17 03:13:17;;;;;;;10.60;4.38;;;;;;;;;;5127192;27;20058;-91
2023/12/17 03:19:22;;;;;;;10.82;3.30;;;;;;;;;;5142801;27;20366;-92
2023/12/17 03:22:02;;;;;;;10.05;4.10;;;;;;;;;;5124109;27;20049;-91
2023/12/17 03:24:36;;;;;;;8.30;4.47;;;;;;;;;;5121603;28;20147;-91
2023/12/17 03:27:18;;;;;;;5.22;3.38;;;;;;;;;;5121119;28;20070;-92
2023/12/17 03:29:47;;;;;;;10.50;3.47;;;;;;;;;;5122492;28;20043;-91
2023/12/17 03:32:20;;;;;;;8.40;3.70;;;;;;;;;;5126986;28;20039;-92
2023/12/17 03:34:55;;;;;;;8.30;3.88;;;;;;;;;;5123894;28;20423;-92
2023/12/17 03:37:26;;;;;;;9.90;3.28;;;;;;;;;;5122842;28;20472;-92
2023/12/17 03:39:58;;;;;;;5.22;3.70;;;;;;;;;;5122235;28;20040;-92
2023/12/17 03:42:40;;;;;;;5.82;3.55;;;;;;;;;;5122780;28;20046;-92
2023/12/17 03:45:14;;;;;;;6.68;3.00;;;;;;;;;;5130440;28;20039;-90
2023/12/17 03:47:46;;;;;;;6.35;3.90;;;;;;;;;;5130357;28;20108;-91
2023/12/17 03:50:17;;;;;;;5.10;3.55;;;;;;;;;;5129962;28;20115;-90
2023/12/17 03:52:47;;;;;;;10.90;3.35;;;;;;;;;;5123308;28;20047;-91
2023/12/17 03:55:16;;;;;;;6.22;3.03;;;;;;;;;;5122136;28;20048;-91
2023/12/17 03:57:47;;;;;;;5.07;2.58;;;;;;;;;;5123724;28;20067;-91
2023/12/17 04:00:28;;;;;;;11.35;3.25;;;;;;;;;;5126682;28;20059;-91
2023/12/17 04:02:57;;;;;;;4.85;3.58;;;;;;;;;;5121684;28;20048;-92
2023/12/17 04:05:37;;;;;;;6.97;3.65;;;;;;;;;;5119822;28;20381;-92
2023/12/17 04:08:10;;;;;;;11.38;3.78;;;;;;;;;;5120559;28;20066;-92
2023/12/17 04:10:39;;;;;;;6.05;3.55;;;;;;;;;;5122271;28;20047;-91
2023/12/17 04:13:09;;;;;;;7.85;4.10;;;;;;;;;;5121783;28;20245;-91
2023/12/17 04:15:41;;;;;;;7.22;4.03;;;;;;;;;;5126316;28;20485;-91
2023/12/17 04:18:08;;;;;;;7.72;3.85;;;;;;;;;;5126405;28;20079;-91
2023/12/17 04:20:41;;;;;;;8.25;4.18;;;;;;;;;;5123920;28;20043;-91
2023/12/17 04:23:20;;;;;;;9.48;3.88;;;;;;;;;;5124612;28;20040;-91
2023/12/17 04:25:50;;;;;;;8.00;4.20;;;;;;;;;;5125319;28;20043;-89
2023/12/17 04:28:34;;;;;;;13.18;3.88;;;;;;;;;;5143060;28;20089;-89
2023/12/17 04:31:18;;;;;;;8.88;4.07;;;;;;;;;;5140943;28;20051;-89
2023/12/17 04:33:59;;;;;;;7.38;3.75;;;;;;;;;;5124790;28;20172;-91
2023/12/17 04:36:43;;;;;;;5.78;3.78;;;;;;;;;;5141378;28;20379;-89
2023/12/17 04:39:13;;;;;;;7.40;4.50;;;;;;;;;;5125455;28;20365;-91
2023/12/17 04:41:43;;;;;;;7.53;4.50;;;;;;;;;;5128124;28;20058;-91
2023/12/17 04:44:14;;;;;;;6.63;3.63;;;;;;;;;;5142519;28;20058;-90
2023/12/17 04:46:57;;;;;;;8.05;4.03;;;;;;;;;;5125568;28;20059;-90
2023/12/17 04:49:27;;;;;;;11.43;3.85;;;;;;;;;;5124050;28;20308;-90
2023/12/17 04:51:59;;;;;;;11.35;5.20;;;;;;;;;;5123741;28;20047;-91
2023/12/17 04:54:40;;;;;;;14.38;3.58;;;;;;;;;;5124757;28;20476;-91
2023/12/17 04:57:18;;;;;;;9.48;4.82;;;;;;;;;;5125017;28;20062;-91
2023/12/17 05:00:03;;;;;;;5.53;3.88;;;;;;;;;;5121032;28;20039;-91
2023/12/17 05:02:36;;;;;;;8.65;4.50;;;;;;;;;;5124856;28;20059;-91
2023/12/17 05:08:44;;;;;;;8.55;4.47;;;;;;;;;;5139868;28;20114;-90
2023/12/17 05:11:20;;;;;;;10.63;4.47;;;;;;;;;;5124140;28;20137;-91
2023/12/17 05:14:02;;;;;;;12.75;4.38;;;;;;;;;;5124937;28;20455;-90
2023/12/17 05:16:42;;;;;;;6.32;2.88;;;;;;;;;;5123024;28;20039;-91
2023/12/17 05:19:16;;;;;;;7.07;4.78;;;;;;;;;;5122873;28;20047;-90
2023/12/17 05:21:51;;;;;;;14.15;4.60;;;;;;;;;;5124114;28;20425;-90
2023/12/17 05:24:36;;;;;;;8.05;4.80;;;;;;;;;;5124229;28;20047;-90
2023/12/17 05:27:17;;;;;;;8.55;4.70;;;;;;;;;;5124281;28;20050;-91
2023/12/17 05:30:04;;;;;;;9.82;4.22;;;;;;;;;;5137540;28;20031;-91
2023/12/17 05:32:42;;;;;;;13.38;4.93;;;;;;;;;;5125439;27;20240;-91
2023/12/17 05:40:35;;;;;;;11.27;5.40;;;;;;;;;;5567073;22;19920;-91
2023/12/17 05:43:09;;;;;;;11.20;3.80;;;;;;;;;;5088519;28;20048;-91
2023/12/17 05:45:42;;;;;;;6.75;4.22;;;;;;;;;;5088519;28;20055;-91
2023/12/17 05:48:23;;;;;;;9.50;4.10;;;;;;;;;;5089584;28;20048;-91
2023/12/17 05:51:08;;;;;;;8.80;4.25;;;;;;;;;;5091166;28;20035;-91
2023/12/17 05:53:45;;;;;;;10.60;4.00;;;;;;;;;;5086387;28;20047;-91
2023/12/17 05:56:19;;;;;;;12.10;4.15;;;;;;;;;;5086024;28;20074;-91
2023/12/17 05:59:00;;;;;;;10.68;4.03;;;;;;;;;;5085845;28;20059;-90
2023/12/17 06:01:42;;;;;;;16.52;3.95;;;;;;;;;;5086795;28;20036;-91
2023/12/17 06:04:15;;;;;;;8.75;4.22;;;;;;;;;;5089012;28;20647;-91
2023/12/17 06:07:00;;;;;;;14.93;4.88;;;;;;;;;;5089797;28;20120;-91
2023/12/17 06:09:28;;;;;;;11.95;4.63;;;;;;;;;;5083928;28;20051;-91
2023/12/17 06:12:11;;;;;;;7.72;4.03;;;;;;;;;;5098813;28;20440;-92
2023/12/17 06:14:51;;;;;;;8.40;3.85;;;;;;;;;;5087721;28;20114;-91
2023/12/17 06:17:34;;;;;;;7.22;4.75;;;;;;;;;;5101490;28;20093;-91
2023/12/17 06:20:17;;;;;;;11.68;4.32;;;;;;;;;;5086052;28;20052;-92
2023/12/17 06:23:01;;;;;;;6.72;3.55;;;;;;;;;;5089778;28;20119;-91
2023/12/17 06:25:44;;;;;;;11.52;3.90;;;;;;;;;;5090374;28;20191;-92
2023/12/17 06:28:28;;;;;;;9.27;4.10;;;;;;;;;;5104989;28;20304;-90
2023/12/17 06:31:09;;;;;;;13.23;4.70;;;;;;;;;;5089606;28;20078;-90
2023/12/17 06:33:53;;;;;;;8.00;4.07;;;;;;;;;;5087414;28;20127;-90
2023/12/17 06:36:37;;;;;;;10.25;4.85;;;;;;;;;;5086138;28;20048;-91
2023/12/17 06:39:25;;;;;;;11.65;4.35;;;;;;;;;;5102233;28;20127;-91
2023/12/17 06:41:59;;;;;;;11.82;4.40;;;;;;;;;;5086211;28;20388;-90
2023/12/17 06:44:40;;;;;;;10.13;4.47;;;;;;;;;;5086187;28;20044;-91
2023/12/17 06:47:25;;;;;;;9.07;4.13;;;;;;;;;;5089648;28;20040;-91
2023/12/17 06:50:07;;;;;;;6.75;3.97;;;;;;;;;;5087988;28;20036;-92
2023/12/17 06:52:38;;;;;;;8.18;5.38;;;;;;;;;;5087700;28;20064;-92
2023/12/17 06:55:10;;;;;;;8.80;5.40;;;;;;;;;;5090642;28;20108;-91
2023/12/17 06:57:54;;;;;;;8.32;4.13;;;;;;;;;;5088136;28;20036;-90
2023/12/17 07:00:35;;;;;;;10.05;4.38;;;;;;;;;;5109590;28;20036;-91
2023/12/17 07:03:19;;;;;;;6.38;4.25;;;;;;;;;;5089345;28;20047;-90
2023/12/17 07:06:11;;;;;;;11.43;4.63;;;;;;;;;;5102609;28;20032;-91
2023/12/17 07:08:52;;;;;;;7.82;4.53;;;;;;;;;;5070531;28;20360;-91
2023/12/17 07:11:33;;;;;;;8.25;4.40;;;;;;;;;;5086877;28;20044;-89
2023/12/17 07:14:14;;;;;;;9.43;3.90;;;;;;;;;;5087958;28;20051;-91
2023/12/17 07:17:07;;;;;;;8.07;4.20;;;;;;;;;;5091444;28;20035;-91
2023/12/17 07:19:49;;;;;;;10.52;4.45;;;;;;;;;;5087857;28;20085;-91
2023/12/17 07:22:22;;;;;;;6.15;4.13;;;;;;;;;;5085472;28;20048;-90
2023/12/17 07:25:01;;;;;;;7.88;4.55;;;;;;;;;;5086845;28;20052;-91
2023/12/17 07:27:43;;;;;;;10.98;5.90;;;;;;;;;;5087759;28;20032;-90
2023/12/17 07:30:24;;;;;;;7.57;5.15;;;;;;;;;;5086137;28;20043;-90
2023/12/17 07:32:57;;;;;;;10.07;5.07;;;;;;;;;;5087143;28;20043;-90
2023/12/17 07:35:38;;;;;;;10.90;5.05;;;;;;;;;;5087198;28;20075;-91
2023/12/17 07:38:20;;;;;;;11.02;4.82;;;;;;;;;;5092083;28;20103;-91
2023/12/17 07:41:03;;;;;;;11.25;4.90;;;;;;;;;;5087624;28;20090;-91
2023/12/17 07:43:47;;;;;;;6.97;4.47;;;;;;;;;;5118471;22;20048;-91
2023/12/17 07:46:28;;;;;;;8.95;4.95;;;;;;;;;;5084297;28;20195;-91
2023/12/17 07:48:57;;;;;;;9.95;4.18;;;;;;;;;;5083409;28;20090;-91
2023/12/17 07:51:38;;;;;;;13.00;5.57;;;;;;;;;;5085906;28;20136;-90
2023/12/17 07:54:18;;;;;;;10.73;5.75;;;;;;;;;;5085379;28;20048;-91
2023/12/17 07:57:02;;;;;;;7.55;4.85;;;;;;;;;;5098836;28;20063;-90
2023/12/17 07:59:44;;;;;;;8.43;5.05;;;;;;;;;;5084449;28;20101;-90
2023/12/17 08:02:26;;;;;;;8.30;4.60;;;;;;;;;;5086482;28;20024;-90
2023/12/17 08:05:08;;;;;;;13.13;5.68;;;;;;;;;;5085679;28;20044;-91
2023/12/17 08:07:48;;;;;;;12.85;4.90;;;;;;;;;;5083397;28;20138;-91
2023/12/17 08:10:30;;;;;;;9.55;5.38;;;;;;;;;;5084282;28;20388;-91
2023/12/17 08:13:13;;;;;;;7.00;5.22;;;;;;;;;;5081909;28;20059;-91
2023/12/17 08:15:54;;;;;;;9.95;4.95;;;;;;;;;;5083691;28;20051;-91
2023/12/17 08:18:38;;;;;;;11.75;5.00;;;;;;;;;;5084300;28;20043;-90
2023/12/17 08:21:19;;;;;;;13.73;4.28;;;;;;;;;;5084213;28;20052;-90
2023/12/17 08:24:03;;;;;;;8.07;5.25;;;;;;;;;;5089659;28;20048;-89
2023/12/17 08:26:44;;;;;;;12.00;4.97;;;;;;;;;;5086452;28;20040;-90
2023/12/17 08:29:26;;;;;;;9.15;5.55;;;;;;;;;;5084553;28;20058;-90
2023/12/17 08:32:09;;;;;;;11.10;5.35;;;;;;;;;;5084414;28;20040;-90
2023/12/17 08:34:53;;;;;;;9.02;5.10;;;;;;;;;;5085087;28;20072;-91
2023/12/17 08:37:36;;;;;;;8.57;5.10;;;;;;;;;;5100702;28;20048;-90
2023/12/17 08:40:10;;;;;;;11.77;5.70;;;;;;;;;;5086619;28;20068;-90
2023/12/17 08:42:51;;;;;;;8.55;4.93;;;;;;;;;;5085147;28;20062;-90
2023/12/17 08:45:36;;;;;;;8.05;5.85;;;;;;;;;;5078395;28;20432;-90
2023/12/17 08:48:18;;;;;;;8.93;5.72;;;;;;;;;;5078991;28;20075;-90
2023/12/17 08:51:05;;;;;;;7.80;5.30;;;;;;;;;;5081414;28;20222;-91
2023/12/17 08:53:49;;;;;;;7.53;5.15;;;;;;;;;;5079285;28;20048;-91
2023/12/17 08:56:26;;;;;;;7.47;5.85;;;;;;;;;;5081999;28;20036;-92
2023/12/17 08:58:56;;;;;;;9.90;5.75;;;;;;;;;;5084291;28;20428;-93
2023/12/17 09:01:24;;;;;;;8.80;5.80;;;;;;;;;;5087560;28;20180;-91
2023/12/17 09:03:54;;;;;;;6.57;5.30;;;;;;;;;;5083362;28;20055;-92
2023/12/17 09:06:27;;;;;;;15.15;6.38;;;;;;;;;;5080403;28;20040;-91
2023/12/17 09:09:09;;;;;;;9.00;5.53;;;;;;;;;;5081303;28;20056;-92
2023/12/17 09:11:46;;;;;;;11.27;6.00;;;;;;;;;;5086253;28;20049;-90
2023/12/17 09:14:20;;;;;;;7.60;5.57;;;;;;;;;;5089067;28;20052;-92
2023/12/17 09:16:58;;;;;;;11.38;6.35;;;;;;;;;;5085967;28;20044;-92
2023/12/17 09:19:29;;;;;;;11.93;6.05;;;;;;;;;;5084215;28;20052;-93
2023/12/17 09:22:10;;;;;;;9.50;6.20;;;;;;;;;;5085756;28;20068;-91
2023/12/17 09:24:41;;;;;;;6.40;4.85;;;;;;;;;;5084829;28;20083;-92
2023/12/17 09:27:14;;;;;;;13.05;5.78;;;;;;;;;;5087158;28;20045;-91
2023/12/17 09:29:49;;;;;;;11.45;6.15;;;;;;;;;;5091704;28;20427;-92
2023/12/17 09:32:21;;;;;;;16.52;5.32;;;;;;;;;;5092466;28;20104;-90
2023/12/17 09:35:09;;;;;;;10.95;4.47;;;;;;;;;;5089047;28;20104;-90
2023/12/17 09:37:51;;;;;;;13.48;5.57;;;;;;;;;;5139194;22;20060;-90
2023/12/17 09:40:32;;;;;;;8.70;5.00;;;;;;;;;;5096950;28;20040;-90
2023/12/17 09:43:13;;;;;;;10.32;4.43;;;;;;;;;;5096540;28;20089;-90
2023/12/17 09:45:51;;;;;;;11.18;4.47;;;;;;;;;;5095133;28;20167;-90
2023/12/17 09:48:21;;;;;;;6.38;3.30;;;;;;;;;;5094556;28;20036;-89
2023/12/17 09:51:05;;;;;;;9.73;4.10;;;;;;;;;;5109428;28;20051;-90
2023/12/17 09:53:48;;;;;;;12.90;4.03;;;;;;;;;;5090013;28;20104;-90
2023/12/17 09:56:35;;;;;;;5.10;2.83;;;;;;;;;;5090288;28;20036;-90
2023/12/17 09:59:19;;;;;;;6.78;3.47;;;;;;;;;;5086988;28;20107;-91
2023/12/17 10:01:52;;;;;;;6.45;2.80;;;;;;;;;;5086975;28;20101;-90
2023/12/17 10:14:40;;;;;;;6.28;3.17;;;;;;;;;;5102085;28;20127;-90
2023/12/17 10:17:21;;;;;;;5.63;3.33;;;;;;;;;;5086047;28;20083;-89
2023/12/17 10:20:03;;;;;;;8.52;4.15;;;;;;;;;;5086595;28;20053;-90
2023/12/17 10:22:55;;;;;;;4.30;3.17;;;;;;;;;;5085533;28;20039;-89
2023/12/17 10:25:40;;;;;;;9.05;3.50;;;;;;;;;;5101994;28;20436;-90
2023/12/17 10:28:23;;;;;;;9.43;4.63;;;;;;;;;;5100888;28;20052;-90
2023/12/17 10:31:05;;;;;;;7.63;4.32;;;;;;;;;;5085699;28;20043;-91
2023/12/17 10:34:07;;;;;;;11.43;5.13;;;;;;;;;;5085545;28;20109;-90
2023/12/17 10:36:50;;;;;;;12.07;5.07;;;;;;;;;;5101027;28;20059;-90
2023/12/17 10:39:37;;;;;;;14.20;4.93;;;;;;;;;;5088219;28;20028;-90
2023/12/17 10:42:25;;;;;;;11.02;5.15;;;;;;;;;;5085657;28;20040;-90
2023/12/17 10:45:13;;;;;;;11.48;4.60;;;;;;;;;;5084829;28;20671;-90
2023/12/17 10:47:56;;;;;;;11.57;4.85;;;;;;;;;;5083644;28;20050;-90
2023/12/17 10:50:37;;;;;;;9.50;4.40;;;;;;;;;;5096750;28;20639;-90
2023/12/17 10:53:14;;;;;;;10.50;5.15;;;;;;;;;;5243024;22;20080;-89
2023/12/17 10:55:49;;;;;;;10.60;4.80;;;;;;;;;;5061485;28;20045;-89
2023/12/17 10:58:31;;;;;;;12.73;5.85;;;;;;;;;;5061597;28;20147;-90
2023/12/17 11:01:17;;;;;;;14.25;5.55;;;;;;;;;;5076633;28;20404;-89
2023/12/17 11:03:58;;;;;;;11.85;5.30;;;;;;;;;;5063541;28;20610;-89
2023/12/17 11:06:45;;;;;;;12.45;6.30;;;;;;;;;;5063828;28;20036;-90
2023/12/17 11:09:28;;;;;;;11.80;5.72;;;;;;;;;;5073657;28;20056;-90
2023/12/17 11:12:20;;;;;;;12.98;5.90;;;;;;;;;;5084144;28;20021;-89
2023/12/17 11:15:06;;;;;;;14.20;6.13;;;;;;;;;;5072560;28;20063;-91
2023/12/17 11:17:55;;;;;;;11.95;5.80;;;;;;;;;;5065828;28;20039;-91
2023/12/17 11:20:37;;;;;;;17.52;7.45;;;;;;;;;;5060000;28;20056;-89
2023/12/17 11:23:24;;;;;;;14.40;5.72;;;;;;;;;;5061375;28;20378;-89
2023/12/17 11:26:07;;;;;;;11.93;5.55;;;;;;;;;;5061604;28;20063;-89
2023/12/17 11:28:50;;;;;;;14.80;6.63;;;;;;;;;;5061498;28;20432;-90
2023/12/17 11:31:34;;;;;;;14.82;6.22;;;;;;;;;;5075025;28;20032;-90
2023/12/17 11:34:12;;;;;;;16.00;7.35;;;;;;;;;;5078296;28;20297;-90
2023/12/17 11:36:43;;;;;;;14.07;7.00;;;;;;;;;;5061471;28;20060;-90
2023/12/17 11:39:28;;;;;;;14.77;6.85;;;;;;;;;;5063310;28;20058;-88
2023/12/17 11:42:16;;;;;;;16.60;7.10;;;;;;;;;;5061198;28;20220;-89
2023/12/17 11:45:06;;;;;;;16.95;7.45;;;;;;;;;;5076333;28;20291;-90
2023/12/17 11:47:47;;;;;;;12.82;5.68;;;;;;;;;;5058841;28;20126;-91
2023/12/17 11:50:18;;;;;;;13.38;6.28;;;;;;;;;;5058016;28;20059;-90
2023/12/17 11:53:25;;;;;;;12.38;5.85;;;;;;;;;;5077826;28;20060;-90
2023/12/17 11:56:13;;;;;;;11.38;5.68;;;;;;;;;;5077603;28;20076;-90
2023/12/17 11:58:50;;;;;;;14.40;5.93;;;;;;;;;;5061586;28;20322;-90
2023/12/17 12:01:25;;;;;;;12.95;6.50;;;;;;;;;;5059744;28;20044;-90
2023/12/17 12:04:07;;;;;;;14.15;6.80;;;;;;;;;;5059083;28;20162;-90
2023/12/17 12:06:52;;;;;;;11.93;5.93;;;;;;;;;;5057645;28;20063;-90
2023/12/17 12:09:33;;;;;;;20.17;7.45;;;;;;;;;;5058903;28;20060;-89
2023/12/17 12:12:19;;;;;;;12.60;6.32;;;;;;;;;;5060681;28;20046;-90
2023/12/17 12:15:03;;;;;;;12.45;5.90;;;;;;;;;;5059207;28;20123;-91
2023/12/17 12:17:45;;;;;;;13.63;5.50;;;;;;;;;;5062356;28;20040;-90
2023/12/17 12:23:55;;;;;;;11.65;6.10;;;;;;;;;;5083439;28;20058;-90
2023/12/17 12:26:37;;;;;;;9.95;5.50;;;;;;;;;;5060784;28;20044;-90
2023/12/17 12:29:27;;;;;;;14.23;6.57;;;;;;;;;;5068594;28;20103;-91
2023/12/17 12:35:32;;;;;;;17.65;6.82;;;;;;;;;;5083682;28;20096;-90
2023/12/17 12:38:23;;;;;;;12.48;6.18;;;;;;;;;;5065424;28;20137;-91
2023/12/17 12:41:12;;;;;;;15.50;7.15;;;;;;;;;;5078185;28;20012;-90
2023/12/17 12:43:55;;;;;;;14.50;6.18;;;;;;;;;;5065786;28;20048;-90
2023/12/17 12:46:35;;;;;;;14.00;6.28;;;;;;;;;;5067273;28;20056;-91
2023/12/17 12:49:10;;;;;;;13.90;6.25;;;;;;;;;;5062998;28;20143;-91
2023/12/17 12:51:51;;;;;;;13.18;5.75;;;;;;;;;;5064142;28;20056;-91
2023/12/17 12:54:22;;;;;;;17.17;6.50;;;;;;;;;;5066066;28;20074;-90
2023/12/17 12:57:07;;;;;;;11.93;6.25;;;;;;;;;;5065255;28;20044;-90
2023/12/17 12:59:42;;;;;;;12.82;5.82;;;;;;;;;;5068243;28;20052;-90
2023/12/17 13:02:24;;;;;;;13.55;6.60;;;;;;;;;;5067957;28;20063;-90
2023/12/17 13:05:10;;;;;;;15.57;7.65;;;;;;;;;;5068820;28;20388;-91
2023/12/17 13:07:52;;;;;;;13.70;5.82;;;;;;;;;;5069583;28;20082;-89
2023/12/17 13:11:09;;;;;;;15.93;5.95;;;;;;;;;;5056879;27;24399;-91
2023/12/17 13:13:51;;;;;;;11.77;6.00;;;;;;;;;;5018306;28;20077;-91
2023/12/17 13:16:52;;;;;;;14.90;6.82;;;;;;;;;;5030871;28;20030;-92
2023/12/17 13:19:46;;;;;;;14.13;5.60;;;;;;;;;;5015451;28;20114;-90
2023/12/17 13:22:38;;;;;;;14.23;6.85;;;;;;;;;;5031740;28;20050;-90
2023/12/17 13:25:34;;;;;;;9.93;5.22;;;;;;;;;;5017703;28;20080;-91
2023/12/17 13:28:21;;;;;;;12.32;6.47;;;;;;;;;;5014546;28;20113;-89
2023/12/17 13:31:07;;;;;;;12.55;6.35;;;;;;;;;;5014958;28;20111;-90
2023/12/17 13:33:55;;;;;;;11.75;5.53;;;;;;;;;;5033532;28;20184;-90
2023/12/17 13:39:45;;;;;;;11.63;5.32;;;;;;;;;;5029318;28;20222;-90
2023/12/17 13:42:29;;;;;;;17.13;5.85;;;;;;;;;;5016919;28;20067;-91
2023/12/17 13:45:13;;;;;;;11.98;5.50;;;;;;;;;;5036172;28;20049;-90
2023/12/17 13:47:45;;;;;;;8.15;4.00;;;;;;;;;;5051861;27;20055;-90
2023/12/17 13:53:53;;;;;;;13.38;5.40;;;;;;;;;;5052397;27;20219;-91
2023/12/17 13:56:33;;;;;;;11.98;5.03;;;;;;;;;;5050297;28;20117;-91
2023/12/17 13:59:17;;;;;;;9.48;5.07;;;;;;;;;;5052245;27;20033;-91
2023/12/17 14:01:59;;;;;;;11.13;4.80;;;;;;;;;;5054133;28;20047;-90
2023/12/17 14:09:50;;;;;;;11.90;4.32;;;;;;;;;;5135540;28;20532;-90
2023/12/17 14:12:33;;;;;;;10.18;4.50;;;;;;;;;;5135570;27;20051;-91
2023/12/17 14:15:17;;;;;;;10.07;4.88;;;;;;;;;;5138504;28;20031;-90
2023/12/17 14:18:12;;;;;;;10.63;4.68;;;;;;;;;;5136949;28;20062;-92
2023/12/17 14:20:55;;;;;;;8.43;4.55;;;;;;;;;;5112637;28;20079;-89
2023/12/17 14:23:36;;;;;;;11.35;4.95;;;;;;;;;;5105338;28;20073;-90
2023/12/17 14:26:24;;;;;;;12.27;6.18;;;;;;;;;;5107300;28;20116;-90
2023/12/17 14:29:17;;;;;;;9.80;4.70;;;;;;;;;;5107441;28;20354;-89
2023/12/17 14:32:14;;;;;;;8.60;4.30;;;;;;;;;;5123517;28;20036;-90
2023/12/17 14:34:57;;;;;;;9.43;4.75;;;;;;;;;;5104071;28;20039;-91
2023/12/17 14:37:41;;;;;;;8.02;4.25;;;;;;;;;;5105900;28;20048;-89
2023/12/17 14:40:24;;;;;;;9.25;4.72;;;;;;;;;;5121119;28;20044;-89
2023/12/17 14:42:56;;;;;;;13.55;5.10;;;;;;;;;;5106013;28;20051;-89
2023/12/17 14:45:38;;;;;;;10.70;4.80;;;;;;;;;;5107034;28;20035;-90
2023/12/17 14:48:22;;;;;;;12.73;5.63;;;;;;;;;;5104663;28;20143;-91
2023/12/17 14:51:05;;;;;;;9.32;5.20;;;;;;;;;;5106596;28;20040;-91
2023/12/17 14:53:48;;;;;;;16.92;5.47;;;;;;;;;;5111563;28;20069;-91
2023/12/17 14:56:31;;;;;;;13.70;4.65;;;;;;;;;;5106880;28;20057;-91
2023/12/17 14:59:12;;;;;;;11.15;5.85;;;;;;;;;;5106398;28;20320;-90
2023/12/17 15:01:56;;;;;;;10.73;5.03;;;;;;;;;;5120501;28;20048;-91
2023/12/17 15:04:37;;;;;;;11.23;5.65;;;;;;;;;;5102363;28;20042;-90
2023/12/17 15:07:18;;;;;;;10.00;5.53;;;;;;;;;;5117785;28;20032;-90
2023/12/17 15:10:08;;;;;;;10.73;5.22;;;;;;;;;;5120034;28;20070;-90
2023/12/17 15:12:58;;;;;;;8.45;3.83;;;;;;;;;;5119650;28;20054;-91
2023/12/17 15:19:03;;;;;;;22.05;4.88;;;;;;;;;;5303171;22;20119;-90
2023/12/17 15:21:51;;;;;;;8.88;4.25;;;;;;;;;;5120960;27;20051;-90
2023/12/17 15:24:36;;;;;;;10.48;5.28;;;;;;;;;;5128801;27;20045;-91
2023/12/17 15:27:17;;;;;;;12.52;5.30;;;;;;;;;;5127352;27;20403;-90
2023/12/17 15:29:59;;;;;;;13.02;4.40;;;;;;;;;;5150550;27;20039;-91
2023/12/17 15:32:40;;;;;;;15.75;6.35;;;;;;;;;;5118037;28;20087;-90
2023/12/17 15:35:58;;;;;;;11.13;5.60;;;;;;;;;;5122417;28;20099;-91
2023/12/17 15:38:58;;;;;;;12.10;4.50;;;;;;;;;;5120075;28;20327;-91
2023/12/17 15:41:45;;;;;;;10.13;5.07;;;;;;;;;;5102363;28;20099;-91
2023/12/17 15:44:27;;;;;;;10.43;4.47;;;;;;;;;;5101312;28;20067;-90
2023/12/17 15:47:35;;;;;;;10.82;5.78;;;;;;;;;;5107438;28;20427;-91
2023/12/17 15:50:36;;;;;;;15.35;4.55;;;;;;;;;;5102046;28;20043;-90
2023/12/17 15:53:19;;;;;;;10.73;4.32;;;;;;;;;;5118638;28;20046;-90
2023/12/17 15:56:03;;;;;;;13.55;4.95;;;;;;;;;;5101211;28;20099;-90
2023/12/17 15:58:44;;;;;;;11.25;5.05;;;;;;;;;;5103009;28;20303;-90
2023/12/17 16:01:28;;;;;;;10.77;4.63;;;;;;;;;;5098438;28;20050;-89
2023/12/17 16:07:02;;;;;;;13.35;4.70;;;;;;;;;;5295984;22;20138;-90
2023/12/17 16:09:55;;;;;;;11.02;4.72;;;;;;;;;;5194415;22;20087;-90
2023/12/17 16:12:36;;;;;;;11.70;6.20;;;;;;;;;;5074612;28;20075;-91
2023/12/17 16:15:19;;;;;;;13.68;4.72;;;;;;;;;;5073104;28;20064;-91
2023/12/17 16:18:05;;;;;;;14.18;6.07;;;;;;;;;;5074354;28;20101;-91
2023/12/17 16:21:03;;;;;;;13.00;6.38;;;;;;;;;;5078646;28;20100;-90
2023/12/17 16:24:04;;;;;;;13.15;5.18;;;;;;;;;;5385176;22;20064;-90
2023/12/17 16:26:56;;;;;;;16.25;6.22;;;;;;;;;;5037168;28;20072;-91
2023/12/17 16:29:37;;;;;;;14.00;5.47;;;;;;;;;;5035400;28;20033;-90
2023/12/17 16:32:11;;;;;;;16.35;6.10;;;;;;;;;;5035911;28;20053;-90
2023/12/17 16:34:54;;;;;;;12.60;5.65;;;;;;;;;;5034987;28;20054;-92
2023/12/17 16:37:35;;;;;;;14.32;5.75;;;;;;;;;;5434300;22;21049;-90
2023/12/17 16:40:34;;;;;;;18.85;5.25;;;;;;;;;;5061511;28;20049;-90
2023/12/17 16:43:15;;;;;;;16.63;7.93;;;;;;;;;;5058496;28;20053;-90
2023/12/17 16:45:47;;;;;;;16.05;6.10;;;;;;;;;;5073792;28;20149;-90
2023/12/17 16:51:07;;;;;;;21.43;6.90;;;;;;;;;;5172343;22;20068;-90
2023/12/17 16:53:53;;;;;;;11.10;4.60;;;;;;;;;;5082042;28;20041;-90